Bow Fagus — LAUE4 — position and weather

sailwx.info

Track history (hours):
 
Tides and Currents Weather Stations Pressure Air Temp Water Temp Dewpoint Dewpoint Depression Visibility Wind Speed Wind Dir Waves Ship Positions

Bow Fagus

Last reported at 2018-Jul-22 00:53 UTC. Time now 2018-Jul-22 01:05 UTC.
Position N 51°53' E 004°18'.

Length 184 m; draft 8.6 m.

Type: Ship (hazmat cat B). MMSI: 258924000.

Date/timePositionNaut miles runAvg speedWind from/ knotsBaromVisibWave heightAir tempDewpointWater temp
2018-Jul-22 00:53N 51°53' E 004°18'0 0.0
2018-Jul-22 00:17N 51°53' E 004°18'0 0.0
2018-Jul-21 23:44N 51°53' E 004°18'0 0.0
2018-Jul-21 23:23N 51°53' E 004°18'0 0.0
2018-Jul-21 22:50N 51°53' E 004°18'0 0.0
2018-Jul-21 22:26N 51°53' E 004°18'0 0.0
2018-Jul-21 21:49N 51°53' E 004°18'0 0.0
2018-Jul-21 21:25N 51°53' E 004°18'0 0.0
2018-Jul-21 20:31N 51°53' E 004°18'0 0.0
2018-Jul-21 20:28N 51°53' E 004°18'0 0.0
2018-Jul-21 19:55N 51°53' E 004°18'0 0.0
2018-Jul-21 19:28N 51°53' E 004°18'0 0.0
2018-Jul-21 18:49N 51°53' E 004°18'0 0.0
2018-Jul-21 18:25N 51°53' E 004°18'0 0.0
2018-Jul-21 17:49N 51°53' E 004°18'0 0.0
2018-Jul-21 17:09N 51°53' E 004°18'0 0.0
2018-Jul-21 16:45N 51°53' E 004°18'0 0.0
2018-Jul-21 16:09N 51°53' E 004°18'0 0.0
2018-Jul-21 15:51N 51°53' E 004°18'0 0.0
2018-Jul-21 15:24N 51°53' E 004°18'0 0.0
2018-Jul-21 15:00N 51°53' E 004°18'0 0.0
2018-Jul-21 14:30N 51°53' E 004°18'0 0.0
2018-Jul-21 13:30N 51°53' E 004°18'0 0.0
2018-Jul-21 13:00N 51°53' E 004°18'1 1.8
2018-Jul-21 12:30N 51°53' E 004°19'2 4.6
2018-Jul-21 12:01N 51°55' E 004°15'1 2.7
2018-Jul-21 11:30N 51°55' E 004°14'2 3.5
2018-Jul-21 11:00N 51°57' E 004°11'3 6.9
2018-Jul-21 10:31N 51°59' E 004°07'4 7.6
2018-Jul-21 10:01N 52°00' E 004°01'510.6
2018-Jul-21 09:31N 51°57' E 004°09'4 7.3
2018-Jul-21 09:01N 51°55' E 004°13'0 0.4
2018-Jul-21 08:31N 51°55' E 004°13'0 0.0
2018-Jul-21 07:58N 51°55' E 004°13'0 0.0
2018-Jul-21 07:28N 51°55' E 004°13'0 0.0
2018-Jul-21 06:58N 51°55' E 004°13'0 0.0
2018-Jul-21 06:28N 51°55' E 004°13'0 0.0
2018-Jul-21 05:58N 51°55' E 004°13'0 0.0
2018-Jul-21 05:19N 51°55' E 004°13'0 0.0
2018-Jul-21 04:58N 51°55' E 004°13'0 0.0
2018-Jul-21 04:28N 51°55' E 004°13'0 0.0
2018-Jul-21 03:58N 51°55' E 004°13'0 0.0
2018-Jul-21 03:28N 51°55' E 004°13'0 0.0
2018-Jul-21 02:58N 51°55' E 004°13'0 0.0
2018-Jul-21 02:28N 51°55' E 004°13'0 0.0
2018-Jul-21 01:58N 51°55' E 004°13'0 0.0
2018-Jul-21 01:25N 51°55' E 004°13'0 0.0
2018-Jul-21 00:58N 51°55' E 004°13'0 0.0
2018-Jul-21 00:19N 51°55' E 004°13'0 0.0
2018-Jul-20 23:58N 51°55' E 004°13'0 0.0
2018-Jul-20 23:28N 51°55' E 004°13'0 0.0
2018-Jul-20 22:58N 51°55' E 004°13'0 0.0
2018-Jul-20 22:28N 51°55' E 004°13'0 0.0
2018-Jul-20 21:58N 51°55' E 004°13'0 0.0
2018-Jul-20 21:28N 51°55' E 004°13'0 0.0
2018-Jul-20 20:58N 51°55' E 004°13'0 0.0
2018-Jul-20 20:16N 51°55' E 004°13'0 0.0
2018-Jul-20 19:58N 51°55' E 004°13'0 0.0
2018-Jul-20 19:22N 51°55' E 004°13'0 0.0
2018-Jul-20 18:49N 51°55' E 004°13'0 0.0
2018-Jul-20 18:28N 51°55' E 004°13'0 0.0
2018-Jul-20 17:58N 51°55' E 004°13'0 0.0
2018-Jul-20 17:25N 51°55' E 004°13'0 0.0
2018-Jul-20 16:49N 51°55' E 004°13'0 0.0
2018-Jul-20 16:28N 51°55' E 004°13'0 0.0
2018-Jul-20 15:58N 51°55' E 004°13'0 0.0
2018-Jul-20 15:28N 51°55' E 004°13'0 0.0
2018-Jul-20 14:58N 51°55' E 004°13'0 0.0
2018-Jul-20 14:28N 51°55' E 004°13'0 0.0
2018-Jul-20 13:58N 51°55' E 004°13'0 0.0
2018-Jul-20 13:25N 51°55' E 004°13'0 0.0
2018-Jul-20 12:58N 51°55' E 004°13'0 0.0
2018-Jul-20 12:28N 51°55' E 004°13'0 0.0
2018-Jul-20 11:52N 51°55' E 004°13'0 0.0
2018-Jul-20 11:28N 51°55' E 004°13'0 0.0
2018-Jul-20 10:52N 51°55' E 004°13'0 0.0
2018-Jul-20 10:25N 51°55' E 004°13'0 0.0
2018-Jul-20 09:55N 51°55' E 004°13'0 0.0
2018-Jul-20 09:28N 51°55' E 004°13'0 0.0
2018-Jul-20 08:58N 51°55' E 004°13'0 0.0
2018-Jul-20 08:28N 51°55' E 004°13'0 0.0
2018-Jul-20 07:58N 51°55' E 004°13'0 0.0
2018-Jul-20 07:28N 51°55' E 004°13'0 0.0
2018-Jul-20 06:58N 51°55' E 004°13'0 0.0
2018-Jul-20 06:28N 51°55' E 004°13'0 0.0
2018-Jul-20 05:58N 51°55' E 004°13'0 0.0
2018-Jul-20 05:25N 51°55' E 004°13'0 0.0
2018-Jul-20 04:58N 51°55' E 004°13'0 0.0
2018-Jul-20 04:28N 51°55' E 004°13'0 0.0
2018-Jul-20 03:58N 51°55' E 004°13'0 0.0
2018-Jul-20 03:28N 51°55' E 004°13'0 0.0
2018-Jul-20 02:43N 51°55' E 004°13'0 0.0
2018-Jul-20 02:25N 51°55' E 004°13'0 0.0
2018-Jul-20 01:58N 51°55' E 004°13'0 0.0
2018-Jul-20 01:28N 51°55' E 004°13'0 0.0
2018-Jul-20 00:58N 51°55' E 004°13'0 0.0
2018-Jul-20 00:28N 51°55' E 004°13'0 0.0
2018-Jul-19 23:55N 51°55' E 004°13'0 0.0
2018-Jul-19 23:28N 51°55' E 004°13'0 0.0
2018-Jul-19 22:58N 51°55' E 004°13'0 0.0
2018-Jul-19 22:28N 51°55' E 004°13'0 0.0
2018-Jul-19 21:58N 51°55' E 004°13'0 0.0
2018-Jul-19 21:25N 51°55' E 004°13'0 0.0
2018-Jul-19 20:55N 51°55' E 004°13'0 0.0
2018-Jul-19 20:28N 51°55' E 004°13'0 0.0
2018-Jul-19 19:58N 51°55' E 004°13'0 0.0
2018-Jul-19 19:22N 51°55' E 004°13'0 0.0
2018-Jul-19 18:58N 51°55' E 004°13'0 0.0
2018-Jul-19 18:28N 51°55' E 004°13'0 0.0
2018-Jul-19 17:52N 51°55' E 004°13'0 0.0
2018-Jul-19 17:28N 51°55' E 004°13'0 0.0
2018-Jul-19 16:55N 51°55' E 004°13'0 0.0
2018-Jul-19 16:28N 51°55' E 004°13'0 0.0
2018-Jul-19 15:58N 51°55' E 004°13'0 0.0
2018-Jul-19 15:28N 51°55' E 004°13'0 0.0
2018-Jul-19 14:58N 51°55' E 004°13'0 0.0
2018-Jul-19 14:25N 51°55' E 004°13'0 0.0
2018-Jul-19 13:28N 51°55' E 004°13'0 0.0
2018-Jul-19 12:58N 51°55' E 004°13'0 0.0
2018-Jul-19 12:29N 51°55' E 004°13'1 1.4
2018-Jul-19 12:01N 51°55' E 004°13'2 3.8
2018-Jul-19 11:30N 51°57' E 004°10'3 6.8
2018-Jul-19 11:00N 51°58' E 004°06'5 9.7
2018-Jul-19 10:30N 52°00' E 003°58'510.0
2018-Jul-19 10:00N 51°60' E 003°50'612.2
2018-Jul-19 09:30N 51°57' E 003°41'3 5.4
2018-Jul-19 09:00N 51°56' E 003°37'0 0.0
2018-Jul-19 08:30N 51°56' E 003°37'0 0.0
2018-Jul-19 08:00N 51°56' E 003°37'0 0.0
2018-Jul-19 07:30N 51°56' E 003°37'0 0.0
2018-Jul-19 07:00N 51°56' E 003°37'0 0.1
2018-Jul-19 06:30N 51°56' E 003°37'0 0.8
2018-Jul-19 06:00N 51°57' E 003°37'611.3
2018-Jul-19 05:30N 51°55' E 003°28'2 4.1
2018-Jul-19 05:00N 51°55' E 003°25'2 4.3
2018-Jul-19 04:30N 51°55' E 003°21'4 7.2
2018-Jul-19 04:00N 51°54' E 003°16'5 9.9
2018-Jul-19 03:30N 51°52' E 003°08'510.4
2018-Jul-19 03:00N 51°51' E 002°60'4 8.8
2018-Jul-19 02:30N 51°51' E 002°53'4 8.5
2018-Jul-19 02:00N 51°54' E 002°49'4 8.3
2018-Jul-19 01:30N 51°52' E 002°43'4 8.1
2018-Jul-19 01:00N 51°49' E 002°39'4 7.5
2018-Jul-19 00:30N 51°46' E 002°35'4 7.5
2018-Jul-19 00:00N 51°43' E 002°32'4 7.5
2018-Jul-18 23:30N 51°39' E 002°30'4 7.1
2018-Jul-18 23:01N 51°37' E 002°26'4 8.0
2018-Jul-18 22:30N 51°40' E 002°21'3 6.9
2018-Jul-18 22:00N 51°43' E 002°19'4 8.2
2018-Jul-18 21:30N 51°46' E 002°23'5 9.3
2018-Jul-18 21:00N 51°50' E 002°28'5 9.2
2018-Jul-18 20:31N 51°54' E 002°33'4 8.2
2018-Jul-18 20:00N 51°56' E 002°38'4 8.1
2018-Jul-18 19:30N 51°59' E 002°42'4 8.1
2018-Jul-18 19:00N 52°02' E 002°46'4 8.0
2018-Jul-18 18:30N 52°06' E 002°51'4 8.0
2018-Jul-18 18:00N 52°09' E 002°55'4 7.8
2018-Jul-18 17:30N 52°11' E 002°59'4 8.1
2018-Jul-18 17:00N 52°15' E 003°03'4 8.4
2018-Jul-18 16:30N 52°19' E 003°05'4 8.1
2018-Jul-18 16:00N 52°23' E 003°05'4 8.4
2018-Jul-18 15:30N 52°27' E 003°06'4 8.9
2018-Jul-18 15:00N 52°31' E 003°07'5 9.1
2018-Jul-18 14:30N 52°36' E 003°08'9 9.4
2018-Jul-18 13:30N 52°45' E 003°11'5 9.5
2018-Jul-18 13:00N 52°50' E 003°13'5 9.6
2018-Jul-18 12:30N 52°54' E 003°15'5 9.4
2018-Jul-18 12:00N 52°59' E 003°17'5 9.2
2018-Jul-18 11:30N 53°03' E 003°20'9 8.7
2018-Jul-18 10:29N 53°12' E 003°24'4 8.4
2018-Jul-18 10:00N 53°16' E 003°26'1610.2
2018-Jul-18 08:24N 53°31' E 003°34'410.3
2018-Jul-18 07:58N 53°35' E 003°36'810.5
2018-Jul-18 07:11N 53°43' E 003°40'11 8.3
2018-Jul-18 05:52N 53°50' E 003°55'27 6.4
2018-Jul-18 01:45N 53°59' E 004°37'3 8.3
2018-Jul-18 01:23N 53°56' E 004°36'3 7.9
2018-Jul-18 01:00N 53°53' E 004°33'67 8.2
2018-Jul-17 16:52N 53°01' E 003°23'14 3.8
2018-Jul-17 13:12N 53°15' E 003°26'4 8.6
2018-Jul-17 12:45N 53°19' E 003°28'2 8.8
2018-Jul-17 12:30N 53°21' E 003°29'5 8.7
2018-Jul-17 11:54N 53°26' E 003°31'3 7.2
2018-Jul-17 11:29N 53°29' E 003°33'5 9.1
2018-Jul-17 10:55N 53°34' E 003°35'4 8.7
2018-Jul-17 10:30N 53°37' E 003°37'5 8.4
2018-Jul-17 09:56N 53°42' E 003°40'10 8.2
2018-Jul-17 08:43N 53°49' E 003°52'3 8.2
2018-Jul-17 08:23N 53°50' E 003°56'3 8.3
2018-Jul-17 07:59N 53°52' E 004°00'4 9.1
2018-Jul-17 07:30N 53°55' E 004°06'4 7.9
2018-Jul-17 07:00N 53°57' E 004°11'4 8.2
2018-Jul-17 06:30N 53°59' E 004°17'4 9.0
2018-Jul-17 06:00N 54°02' E 004°23'4 7.9
2018-Jul-17 05:30N 54°03' E 004°30'4 7.9
2018-Jul-17 05:00N 54°03' E 004°37'5 8.1
2018-Jul-17 04:26N 54°04' E 004°44'4 9.1
2018-Jul-17 04:00N 54°04' E 004°51'5 9.1
2018-Jul-17 03:25N 54°05' E 005°00'17 8.6
2018-Jul-17 01:26N 54°07' E 005°29'5 8.6
2018-Jul-17 00:54N 54°08' E 005°37'3 8.4
2018-Jul-17 00:30N 54°08' E 005°42'37 8.4
2018-Jul-16 20:02N 54°12' E 006°46'2 8.3
2018-Jul-16 19:47N 54°12' E 006°50'2 8.2
2018-Jul-16 19:30N 54°12' E 006°53'4 8.5
2018-Jul-16 19:00N 54°12' E 007°01'4 8.4
2018-Jul-16 18:30N 54°12' E 007°08'4 8.4
2018-Jul-16 18:00N 54°12' E 007°15'5 8.8
2018-Jul-16 17:29N 54°12' E 007°23'612.8
2018-Jul-16 17:00N 54°12' E 007°33'714.2
2018-Jul-16 16:30N 54°08' E 007°44'713.9
2018-Jul-16 16:01N 54°05' E 007°54'713.7
2018-Jul-16 15:28N 54°01' E 008°05'613.2
2018-Jul-16 15:00N 54°00' E 008°15'714.0
2018-Jul-16 14:30N 53°59' E 008°27'612.4
2018-Jul-16 14:00N 53°57' E 008°37'510.8
2018-Jul-16 13:30N 53°53' E 008°43'5 9.5
2018-Jul-16 13:00N 53°50' E 008°49'510.3
2018-Jul-16 12:30N 53°51' E 008°58'510.7
2018-Jul-16 12:01N 53°53' E 009°07'4 7.8
2018-Jul-16 11:30N 53°53' E 009°13'612.8
2018-Jul-16 11:01N 53°49' E 009°22'612.9
2018-Jul-16 10:31N 53°44' E 009°28'612.5
2018-Jul-16 10:01N 53°38' E 009°32'612.3
2018-Jul-16 09:30N 53°34' E 009°40'612.3
2018-Jul-16 09:00N 53°33' E 009°51'3 6.9
2018-Jul-16 08:30N 53°32' E 009°56'2 3.3
2018-Jul-16 08:00N 53°31' E 009°57'0 0.0
2018-Jul-16 07:30N 53°31' E 009°57'0 0.0
2018-Jul-16 07:00N 53°31' E 009°57'0 0.0
2018-Jul-16 06:30N 53°31' E 009°57'0 0.0
2018-Jul-16 06:00N 53°31' E 009°57'0 0.0
2018-Jul-16 05:30N 53°31' E 009°57'0 0.0
2018-Jul-16 05:00N 53°31' E 009°57'0 0.0
2018-Jul-16 04:30N 53°31' E 009°57'0 0.0
2018-Jul-16 04:00N 53°31' E 009°57'0 0.0
2018-Jul-16 03:30N 53°31' E 009°57'0 0.0
2018-Jul-16 03:00N 53°31' E 009°57'0 0.0
2018-Jul-16 02:30N 53°31' E 009°57'0 0.0
2018-Jul-16 01:57N 53°31' E 009°57'0 0.0
2018-Jul-16 01:30N 53°31' E 009°57'0 0.0
2018-Jul-16 01:00N 53°31' E 009°57'0 0.0
2018-Jul-16 00:30N 53°31' E 009°57'0 0.0
2018-Jul-15 23:57N 53°31' E 009°57'0 0.0
2018-Jul-15 23:30N 53°31' E 009°57'0 0.0
2018-Jul-15 23:00N 53°31' E 009°57'0 0.0
2018-Jul-15 22:30N 53°31' E 009°57'0 0.0
2018-Jul-15 22:00N 53°31' E 009°57'0 0.0
2018-Jul-15 21:30N 53°31' E 009°57'0 0.0
2018-Jul-15 21:00N 53°31' E 009°57'0 0.0
2018-Jul-15 20:30N 53°31' E 009°57'0 0.0
2018-Jul-15 20:00N 53°31' E 009°57'0 0.0
2018-Jul-15 19:30N 53°31' E 009°57'0 0.0
2018-Jul-15 19:00N 53°31' E 009°57'0 0.0
2018-Jul-15 18:30N 53°31' E 009°57'0 0.0
2018-Jul-15 18:00N 53°31' E 009°57'0 0.0
2018-Jul-15 17:30N 53°31' E 009°57'0 0.0
2018-Jul-15 17:00N 53°31' E 009°57'0 0.0
2018-Jul-15 16:30N 53°31' E 009°57'0 0.0
2018-Jul-15 16:00N 53°31' E 009°57'0 0.0
2018-Jul-15 15:30N 53°31' E 009°57'0 0.0
2018-Jul-15 15:00N 53°31' E 009°57'0 0.0
2018-Jul-15 14:30N 53°31' E 009°57'0 0.0
2018-Jul-15 14:00N 53°31' E 009°57'0 0.0
2018-Jul-15 13:27N 53°31' E 009°57'0 0.0
2018-Jul-15 13:00N 53°31' E 009°57'0 0.0
2018-Jul-15 12:30N 53°31' E 009°57'0 0.0
2018-Jul-15 11:54N 53°31' E 009°57'0 0.0
2018-Jul-15 11:30N 53°31' E 009°57'0 0.0
2018-Jul-15 11:00N 53°31' E 009°57'0 0.0
2018-Jul-15 10:30N 53°31' E 009°57'0 0.0
2018-Jul-15 10:00N 53°31' E 009°57'0 0.0
2018-Jul-15 09:27N 53°31' E 009°57'0 0.0
2018-Jul-15 09:00N 53°31' E 009°57'0 0.0
2018-Jul-15 08:30N 53°31' E 009°57'0 0.0
2018-Jul-15 08:00N 53°31' E 009°57'0 0.0
2018-Jul-15 07:30N 53°31' E 009°57'0 0.0
2018-Jul-15 07:00N 53°31' E 009°57'0 0.0
2018-Jul-15 06:30N 53°31' E 009°57'0 0.0
2018-Jul-15 06:00N 53°31' E 009°57'0 0.0
2018-Jul-15 05:30N 53°31' E 009°57'0 0.0
2018-Jul-15 05:00N 53°31' E 009°57'0 0.0
2018-Jul-15 04:30N 53°31' E 009°57'0 0.0
2018-Jul-15 04:00N 53°31' E 009°57'0 0.0
2018-Jul-15 03:30N 53°31' E 009°57'0 0.0
2018-Jul-15 02:57N 53°31' E 009°57'0 0.0
2018-Jul-15 02:30N 53°31' E 009°57'0 0.0
2018-Jul-15 01:57N 53°31' E 009°57'0 0.0
2018-Jul-15 01:30N 53°31' E 009°57'1 1.2
2018-Jul-15 01:00N 53°31' E 009°57'3 5.5
2018-Jul-15 00:30N 53°33' E 009°53'510.0
2018-Jul-15 00:00N 53°34' E 009°45'612.4
2018-Jul-14 23:30N 53°36' E 009°35'612.7
2018-Jul-14 23:00N 53°42' E 009°30'612.3
2018-Jul-14 22:30N 53°47' E 009°23'612.3
2018-Jul-14 22:00N 53°52' E 009°18'611.7
2018-Jul-14 21:30N 53°53' E 009°08'4 7.7
2018-Jul-14 21:01N 53°51' E 009°02'611.3
2018-Jul-14 20:30N 53°50' E 008°52'510.9
2018-Jul-14 20:00N 53°52' E 008°44'611.4
2018-Jul-14 19:30N 53°57' E 008°38'611.7
2018-Jul-14 19:00N 53°58' E 008°29'612.0
2018-Jul-14 18:30N 53°59' E 008°19'713.9
2018-Jul-14 18:00N 53°59' E 008°07'612.5
2018-Jul-14 17:30N 54°02' E 007°57'612.9
2018-Jul-14 17:00N 54°05' E 007°48'812.5
2018-Jul-14 16:23N 54°09' E 007°36'3712.8
2018-Jul-14 13:29N 54°09' E 006°33'11713.4
2018-Jul-14 04:47N 53°17' E 003°36'715.2
2018-Jul-14 04:20N 53°11' E 003°31'615.2
2018-Jul-14 03:58N 53°06' E 003°28'715.4
2018-Jul-14 03:30N 52°59' E 003°23'815.4
2018-Jul-14 03:00N 52°52' E 003°18'815.4
2018-Jul-14 02:31N 52°46' E 003°12'815.5
2018-Jul-14 01:59N 52°38' E 003°06'815.1
2018-Jul-14 01:29N 52°32' E 002°60'714.8
2018-Jul-14 01:00N 52°25' E 002°54'714.3
2018-Jul-14 00:31N 52°19' E 002°49'713.8
2018-Jul-14 00:00N 52°13' E 002°44'713.2
2018-Jul-13 23:30N 52°07' E 002°40'612.8
2018-Jul-13 23:00N 52°00' E 002°40'612.4
2018-Jul-13 22:30N 51°54' E 002°42'612.0
2018-Jul-13 22:00N 51°49' E 002°38'611.9
2018-Jul-13 21:30N 51°44' E 002°32'611.7
2018-Jul-13 21:00N 51°40' E 002°26'611.5
2018-Jul-13 20:30N 51°35' E 002°21'611.3
2018-Jul-13 20:00N 51°30' E 002°15'611.3
2018-Jul-13 19:30N 51°25' E 002°12'510.5
2018-Jul-13 19:00N 51°21' E 002°16'815.6
2018-Jul-13 18:30N 51°23' E 002°28'5 9.5
2018-Jul-13 17:58N 51°24' E 002°36'0 0.1
2018-Jul-13 17:30N 51°24' E 002°36'5 9.8
2018-Jul-13 17:00N 51°22' E 002°43'613.0
2018-Jul-13 16:30N 51°22' E 002°53'713.6
2018-Jul-13 16:00N 51°25' E 003°04'713.8
2018-Jul-13 15:31N 51°25' E 003°15'713.9
2018-Jul-13 15:00N 51°25' E 003°26'612.8
2018-Jul-13 14:30N 51°26' E 003°36'10 9.8
2018-Jul-13 13:30N 51°21' E 003°49'1 1.9
2018-Jul-13 13:00N 51°20' E 003°49'1 1.2
2018-Jul-13 12:30N 51°19' E 003°49'3 6.2
2018-Jul-13 12:01N 51°16' E 003°50'3 6.1
2018-Jul-13 11:31N 51°13' E 003°48'3 5.3
2018-Jul-13 11:01N 51°11' E 003°48'3 6.4
2018-Jul-13 10:31N 51°08' E 003°46'2 4.6
2018-Jul-13 10:00N 51°06' E 003°44'1 1.8
2018-Jul-13 09:30N 51°05' E 003°44'0 0.0
2018-Jul-13 09:00N 51°05' E 003°44'0 0.0
2018-Jul-13 08:30N 51°05' E 003°44'0 0.0
2018-Jul-13 08:00N 51°05' E 003°44'0 0.0
2018-Jul-13 07:30N 51°05' E 003°44'0 0.0
2018-Jul-13 06:58N 51°05' E 003°44'0 0.0
2018-Jul-13 06:31N 51°05' E 003°44'0 0.0
2018-Jul-13 05:58N 51°05' E 003°44'0 0.0
2018-Jul-13 05:31N 51°05' E 003°44'0 0.0
2018-Jul-13 05:01N 51°05' E 003°44'0 0.0
2018-Jul-13 04:27N 51°05' E 003°44'0 0.0
2018-Jul-13 04:01N 51°05' E 003°44'0 0.0
2018-Jul-13 03:30N 51°05' E 003°44'0 0.0
2018-Jul-13 02:57N 51°05' E 003°44'0 0.0
2018-Jul-13 02:30N 51°05' E 003°44'0 0.0
2018-Jul-13 02:00N 51°05' E 003°44'0 0.0
2018-Jul-13 01:30N 51°05' E 003°44'0 0.0
2018-Jul-13 00:57N 51°05' E 003°44'0 0.0
2018-Jul-13 00:30N 51°05' E 003°44'0 0.0
2018-Jul-13 00:00N 51°05' E 003°44'0 0.0
2018-Jul-12 23:31N 51°05' E 003°44'0 0.0
2018-Jul-12 22:57N 51°05' E 003°44'0 0.0
2018-Jul-12 22:30N 51°05' E 003°44'0 0.0
2018-Jul-12 21:57N 51°05' E 003°44'0 0.0
2018-Jul-12 21:27N 51°05' E 003°44'0 0.0
2018-Jul-12 21:01N 51°05' E 003°44'0 0.0
2018-Jul-12 20:30N 51°05' E 003°44'0 0.0
2018-Jul-12 20:01N 51°05' E 003°44'0 0.0
2018-Jul-12 19:30N 51°05' E 003°44'0 0.0
2018-Jul-12 19:00N 51°05' E 003°44'0 0.0
2018-Jul-12 18:30N 51°05' E 003°44'0 0.0
2018-Jul-12 17:57N 51°05' E 003°44'0 0.0
2018-Jul-12 17:27N 51°05' E 003°44'0 0.0
2018-Jul-12 17:00N 51°05' E 003°44'0 0.0
2018-Jul-12 16:30N 51°05' E 003°44'0 0.0
2018-Jul-12 15:59N 51°05' E 003°44'0 0.0
2018-Jul-12 15:29N 51°05' E 003°44'0 0.0
2018-Jul-12 14:59N 51°05' E 003°44'0 0.0
2018-Jul-12 14:29N 51°05' E 003°44'0 0.0
2018-Jul-12 13:56N 51°05' E 003°44'0 0.0
2018-Jul-12 13:29N 51°05' E 003°44'0 0.0
2018-Jul-12 13:00N 51°05' E 003°44'0 0.0
2018-Jul-12 12:29N 51°05' E 003°44'0 0.0
2018-Jul-12 11:56N 51°05' E 003°44'0 0.0
2018-Jul-12 11:30N 51°05' E 003°44'0 0.0
2018-Jul-12 10:58N 51°05' E 003°44'0 0.0
2018-Jul-12 10:30N 51°05' E 003°44'0 0.0
2018-Jul-12 10:00N 51°05' E 003°44'0 0.0
2018-Jul-12 09:29N 51°05' E 003°44'0 0.0
2018-Jul-12 09:00N 51°05' E 003°44'0 0.0
2018-Jul-12 08:30N 51°05' E 003°44'0 0.0
2018-Jul-12 08:00N 51°05' E 003°44'0 0.0
2018-Jul-12 07:30N 51°05' E 003°44'0 0.0
2018-Jul-12 07:01N 51°05' E 003°44'0 0.0
2018-Jul-12 06:28N 51°05' E 003°44'0 0.0
2018-Jul-12 05:57N 51°05' E 003°44'0 0.0
2018-Jul-12 05:28N 51°05' E 003°44'0 0.0
2018-Jul-12 04:58N 51°05' E 003°44'0 0.0
2018-Jul-12 04:28N 51°05' E 003°44'0 0.0
2018-Jul-12 03:55N 51°05' E 003°44'0 0.0
2018-Jul-12 03:30N 51°05' E 003°44'0 0.0
2018-Jul-12 03:00N 51°05' E 003°44'0 0.0
2018-Jul-12 02:31N 51°05' E 003°44'0 0.0
2018-Jul-12 01:59N 51°05' E 003°44'0 0.0
2018-Jul-12 01:28N 51°05' E 003°44'0 0.0
2018-Jul-12 00:58N 51°05' E 003°44'  
Track history (hours):
 
Tides and Currents Weather Stations Pressure Air Temp Water Temp Dewpoint Dewpoint Depression Visibility Wind Speed Wind Dir Waves Ship Positions

Bow Fagus

Last reported at 2018-Jul-22 00:53 UTC. Time now 2018-Jul-22 01:05 UTC.
Position N 51°53' E 004°18'.

Length 184 m; draft 8.6 m.

Type: Ship (hazmat cat B). MMSI: 258924000.

Date/timePositionNaut miles runAvg speedWind from/ knotsBaromVisibWave heightAir tempDewpointWater temp
2018-Jul-22 00:53N 51°53' E 004°18'0 0.0
2018-Jul-22 00:17N 51°53' E 004°18'0 0.0
2018-Jul-21 23:44N 51°53' E 004°18'0 0.0
2018-Jul-21 23:23N 51°53' E 004°18'0 0.0
2018-Jul-21 22:50N 51°53' E 004°18'0 0.0
2018-Jul-21 22:26N 51°53' E 004°18'0 0.0
2018-Jul-21 21:49N 51°53' E 004°18'0 0.0
2018-Jul-21 21:25N 51°53' E 004°18'0 0.0
2018-Jul-21 20:31N 51°53' E 004°18'0 0.0
2018-Jul-21 20:28N 51°53' E 004°18'0 0.0
2018-Jul-21 19:55N 51°53' E 004°18'0 0.0
2018-Jul-21 19:28N 51°53' E 004°18'0 0.0
2018-Jul-21 18:49N 51°53' E 004°18'0 0.0
2018-Jul-21 18:25N 51°53' E 004°18'0 0.0
2018-Jul-21 17:49N 51°53' E 004°18'0 0.0
2018-Jul-21 17:09N 51°53' E 004°18'0 0.0
2018-Jul-21 16:45N 51°53' E 004°18'0 0.0
2018-Jul-21 16:09N 51°53' E 004°18'0 0.0
2018-Jul-21 15:51N 51°53' E 004°18'0 0.0
2018-Jul-21 15:24N 51°53' E 004°18'0 0.0
2018-Jul-21 15:00N 51°53' E 004°18'0 0.0
2018-Jul-21 14:30N 51°53' E 004°18'0 0.0
2018-Jul-21 13:30N 51°53' E 004°18'0 0.0
2018-Jul-21 13:00N 51°53' E 004°18'1 1.8
2018-Jul-21 12:30N 51°53' E 004°19'2 4.6
2018-Jul-21 12:01N 51°55' E 004°15'1 2.7
2018-Jul-21 11:30N 51°55' E 004°14'2 3.5
2018-Jul-21 11:00N 51°57' E 004°11'3 6.9
2018-Jul-21 10:31N 51°59' E 004°07'4 7.6
2018-Jul-21 10:01N 52°00' E 004°01'510.6
2018-Jul-21 09:31N 51°57' E 004°09'4 7.3
2018-Jul-21 09:01N 51°55' E 004°13'0 0.4
2018-Jul-21 08:31N 51°55' E 004°13'0 0.0
2018-Jul-21 07:58N 51°55' E 004°13'0 0.0
2018-Jul-21 07:28N 51°55' E 004°13'0 0.0
2018-Jul-21 06:58N 51°55' E 004°13'0 0.0
2018-Jul-21 06:28N 51°55' E 004°13'0 0.0
2018-Jul-21 05:58N 51°55' E 004°13'0 0.0
2018-Jul-21 05:19N 51°55' E 004°13'0 0.0
2018-Jul-21 04:58N 51°55' E 004°13'0 0.0
2018-Jul-21 04:28N 51°55' E 004°13'0 0.0
2018-Jul-21 03:58N 51°55' E 004°13'0 0.0
2018-Jul-21 03:28N 51°55' E 004°13'0 0.0
2018-Jul-21 02:58N 51°55' E 004°13'0 0.0
2018-Jul-21 02:28N 51°55' E 004°13'0 0.0
2018-Jul-21 01:58N 51°55' E 004°13'0 0.0
2018-Jul-21 01:25N 51°55' E 004°13'0 0.0
2018-Jul-21 00:58N 51°55' E 004°13'0 0.0
2018-Jul-21 00:19N 51°55' E 004°13'0 0.0
2018-Jul-20 23:58N 51°55' E 004°13'0 0.0
2018-Jul-20 23:28N 51°55' E 004°13'0 0.0
2018-Jul-20 22:58N 51°55' E 004°13'0 0.0
2018-Jul-20 22:28N 51°55' E 004°13'0 0.0
2018-Jul-20 21:58N 51°55' E 004°13'0 0.0
2018-Jul-20 21:28N 51°55' E 004°13'0 0.0
2018-Jul-20 20:58N 51°55' E 004°13'0 0.0
2018-Jul-20 20:16N 51°55' E 004°13'0 0.0
2018-Jul-20 19:58N 51°55' E 004°13'0 0.0
2018-Jul-20 19:22N 51°55' E 004°13'0 0.0
2018-Jul-20 18:49N 51°55' E 004°13'0 0.0
2018-Jul-20 18:28N 51°55' E 004°13'0 0.0
2018-Jul-20 17:58N 51°55' E 004°13'0 0.0
2018-Jul-20 17:25N 51°55' E 004°13'0 0.0
2018-Jul-20 16:49N 51°55' E 004°13'0 0.0
2018-Jul-20 16:28N 51°55' E 004°13'0 0.0
2018-Jul-20 15:58N 51°55' E 004°13'0 0.0
2018-Jul-20 15:28N 51°55' E 004°13'0 0.0
2018-Jul-20 14:58N 51°55' E 004°13'0 0.0
2018-Jul-20 14:28N 51°55' E 004°13'0 0.0
2018-Jul-20 13:58N 51°55' E 004°13'0 0.0
2018-Jul-20 13:25N 51°55' E 004°13'0 0.0
2018-Jul-20 12:58N 51°55' E 004°13'0 0.0
2018-Jul-20 12:28N 51°55' E 004°13'0 0.0
2018-Jul-20 11:52N 51°55' E 004°13'0 0.0
2018-Jul-20 11:28N 51°55' E 004°13'0 0.0
2018-Jul-20 10:52N 51°55' E 004°13'0 0.0
2018-Jul-20 10:25N 51°55' E 004°13'0 0.0
2018-Jul-20 09:55N 51°55' E 004°13'0 0.0
2018-Jul-20 09:28N 51°55' E 004°13'0 0.0
2018-Jul-20 08:58N 51°55' E 004°13'0 0.0
2018-Jul-20 08:28N 51°55' E 004°13'0 0.0
2018-Jul-20 07:58N 51°55' E 004°13'0 0.0
2018-Jul-20 07:28N 51°55' E 004°13'0 0.0
2018-Jul-20 06:58N 51°55' E 004°13'0 0.0
2018-Jul-20 06:28N 51°55' E 004°13'0 0.0
2018-Jul-20 05:58N 51°55' E 004°13'0 0.0
2018-Jul-20 05:25N 51°55' E 004°13'0 0.0
2018-Jul-20 04:58N 51°55' E 004°13'0 0.0
2018-Jul-20 04:28N 51°55' E 004°13'0 0.0
2018-Jul-20 03:58N 51°55' E 004°13'0 0.0
2018-Jul-20 03:28N 51°55' E 004°13'0 0.0
2018-Jul-20 02:43N 51°55' E 004°13'0 0.0
2018-Jul-20 02:25N 51°55' E 004°13'0 0.0
2018-Jul-20 01:58N 51°55' E 004°13'0 0.0
2018-Jul-20 01:28N 51°55' E 004°13'0 0.0
2018-Jul-20 00:58N 51°55' E 004°13'0 0.0
2018-Jul-20 00:28N 51°55' E 004°13'0 0.0
2018-Jul-19 23:55N 51°55' E 004°13'0 0.0
2018-Jul-19 23:28N 51°55' E 004°13'0 0.0
2018-Jul-19 22:58N 51°55' E 004°13'0 0.0
2018-Jul-19 22:28N 51°55' E 004°13'0 0.0
2018-Jul-19 21:58N 51°55' E 004°13'0 0.0
2018-Jul-19 21:25N 51°55' E 004°13'0 0.0
2018-Jul-19 20:55N 51°55' E 004°13'0 0.0
2018-Jul-19 20:28N 51°55' E 004°13'0 0.0
2018-Jul-19 19:58N 51°55' E 004°13'0 0.0
2018-Jul-19 19:22N 51°55' E 004°13'0 0.0
2018-Jul-19 18:58N 51°55' E 004°13'0 0.0
2018-Jul-19 18:28N 51°55' E 004°13'0 0.0
2018-Jul-19 17:52N 51°55' E 004°13'0 0.0
2018-Jul-19 17:28N 51°55' E 004°13'0 0.0
2018-Jul-19 16:55N 51°55' E 004°13'0 0.0
2018-Jul-19 16:28N 51°55' E 004°13'0 0.0
2018-Jul-19 15:58N 51°55' E 004°13'0 0.0
2018-Jul-19 15:28N 51°55' E 004°13'0 0.0
2018-Jul-19 14:58N 51°55' E 004°13'0 0.0
2018-Jul-19 14:25N 51°55' E 004°13'0 0.0
2018-Jul-19 13:28N 51°55' E 004°13'0 0.0
2018-Jul-19 12:58N 51°55' E 004°13'0 0.0
2018-Jul-19 12:29N 51°55' E 004°13'1 1.4
2018-Jul-19 12:01N 51°55' E 004°13'2 3.8
2018-Jul-19 11:30N 51°57' E 004°10'3 6.8
2018-Jul-19 11:00N 51°58' E 004°06'5 9.7
2018-Jul-19 10:30N 52°00' E 003°58'510.0
2018-Jul-19 10:00N 51°60' E 003°50'612.2
2018-Jul-19 09:30N 51°57' E 003°41'3 5.4
2018-Jul-19 09:00N 51°56' E 003°37'0 0.0
2018-Jul-19 08:30N 51°56' E 003°37'0 0.0
2018-Jul-19 08:00N 51°56' E 003°37'0 0.0
2018-Jul-19 07:30N 51°56' E 003°37'0 0.0
2018-Jul-19 07:00N 51°56' E 003°37'0 0.1
2018-Jul-19 06:30N 51°56' E 003°37'0 0.8
2018-Jul-19 06:00N 51°57' E 003°37'611.3
2018-Jul-19 05:30N 51°55' E 003°28'2 4.1
2018-Jul-19 05:00N 51°55' E 003°25'2 4.3
2018-Jul-19 04:30N 51°55' E 003°21'4 7.2
2018-Jul-19 04:00N 51°54' E 003°16'5 9.9
2018-Jul-19 03:30N 51°52' E 003°08'510.4
2018-Jul-19 03:00N 51°51' E 002°60'4 8.8
2018-Jul-19 02:30N 51°51' E 002°53'4 8.5
2018-Jul-19 02:00N 51°54' E 002°49'4 8.3
2018-Jul-19 01:30N 51°52' E 002°43'4 8.1
2018-Jul-19 01:00N 51°49' E 002°39'4 7.5
2018-Jul-19 00:30N 51°46' E 002°35'4 7.5
2018-Jul-19 00:00N 51°43' E 002°32'4 7.5
2018-Jul-18 23:30N 51°39' E 002°30'4 7.1
2018-Jul-18 23:01N 51°37' E 002°26'4 8.0
2018-Jul-18 22:30N 51°40' E 002°21'3 6.9
2018-Jul-18 22:00N 51°43' E 002°19'4 8.2
2018-Jul-18 21:30N 51°46' E 002°23'5 9.3
2018-Jul-18 21:00N 51°50' E 002°28'5 9.2
2018-Jul-18 20:31N 51°54' E 002°33'4 8.2
2018-Jul-18 20:00N 51°56' E 002°38'4 8.1
2018-Jul-18 19:30N 51°59' E 002°42'4 8.1
2018-Jul-18 19:00N 52°02' E 002°46'4 8.0
2018-Jul-18 18:30N 52°06' E 002°51'4 8.0
2018-Jul-18 18:00N 52°09' E 002°55'4 7.8
2018-Jul-18 17:30N 52°11' E 002°59'4 8.1
2018-Jul-18 17:00N 52°15' E 003°03'4 8.4
2018-Jul-18 16:30N 52°19' E 003°05'4 8.1
2018-Jul-18 16:00N 52°23' E 003°05'4 8.4
2018-Jul-18 15:30N 52°27' E 003°06'4 8.9
2018-Jul-18 15:00N 52°31' E 003°07'5 9.1
2018-Jul-18 14:30N 52°36' E 003°08'9 9.4
2018-Jul-18 13:30N 52°45' E 003°11'5 9.5
2018-Jul-18 13:00N 52°50' E 003°13'5 9.6
2018-Jul-18 12:30N 52°54' E 003°15'5 9.4
2018-Jul-18 12:00N 52°59' E 003°17'5 9.2
2018-Jul-18 11:30N 53°03' E 003°20'9 8.7
2018-Jul-18 10:29N 53°12' E 003°24'4 8.4
2018-Jul-18 10:00N 53°16' E 003°26'1610.2
2018-Jul-18 08:24N 53°31' E 003°34'410.3
2018-Jul-18 07:58N 53°35' E 003°36'810.5
2018-Jul-18 07:11N 53°43' E 003°40'11 8.3
2018-Jul-18 05:52N 53°50' E 003°55'27 6.4
2018-Jul-18 01:45N 53°59' E 004°37'3 8.3
2018-Jul-18 01:23N 53°56' E 004°36'3 7.9
2018-Jul-18 01:00N 53°53' E 004°33'67 8.2
2018-Jul-17 16:52N 53°01' E 003°23'14 3.8
2018-Jul-17 13:12N 53°15' E 003°26'4 8.6
2018-Jul-17 12:45N 53°19' E 003°28'2 8.8
2018-Jul-17 12:30N 53°21' E 003°29'5 8.7
2018-Jul-17 11:54N 53°26' E 003°31'3 7.2
2018-Jul-17 11:29N 53°29' E 003°33'5 9.1
2018-Jul-17 10:55N 53°34' E 003°35'4 8.7
2018-Jul-17 10:30N 53°37' E 003°37'5 8.4
2018-Jul-17 09:56N 53°42' E 003°40'10 8.2
2018-Jul-17 08:43N 53°49' E 003°52'3 8.2
2018-Jul-17 08:23N 53°50' E 003°56'3 8.3
2018-Jul-17 07:59N 53°52' E 004°00'4 9.1
2018-Jul-17 07:30N 53°55' E 004°06'4 7.9
2018-Jul-17 07:00N 53°57' E 004°11'4 8.2
2018-Jul-17 06:30N 53°59' E 004°17'4 9.0
2018-Jul-17 06:00N 54°02' E 004°23'4 7.9
2018-Jul-17 05:30N 54°03' E 004°30'4 7.9
2018-Jul-17 05:00N 54°03' E 004°37'5 8.1
2018-Jul-17 04:26N 54°04' E 004°44'4 9.1
2018-Jul-17 04:00N 54°04' E 004°51'5 9.1
2018-Jul-17 03:25N 54°05' E 005°00'17 8.6
2018-Jul-17 01:26N 54°07' E 005°29'5 8.6
2018-Jul-17 00:54N 54°08' E 005°37'3 8.4
2018-Jul-17 00:30N 54°08' E 005°42'37 8.4
2018-Jul-16 20:02N 54°12' E 006°46'2 8.3
2018-Jul-16 19:47N 54°12' E 006°50'2 8.2
2018-Jul-16 19:30N 54°12' E 006°53'4 8.5
2018-Jul-16 19:00N 54°12' E 007°01'4 8.4
2018-Jul-16 18:30N 54°12' E 007°08'4 8.4
2018-Jul-16 18:00N 54°12' E 007°15'5 8.8
2018-Jul-16 17:29N 54°12' E 007°23'612.8
2018-Jul-16 17:00N 54°12' E 007°33'714.2
2018-Jul-16 16:30N 54°08' E 007°44'713.9
2018-Jul-16 16:01N 54°05' E 007°54'713.7
2018-Jul-16 15:28N 54°01' E 008°05'613.2
2018-Jul-16 15:00N 54°00' E 008°15'714.0
2018-Jul-16 14:30N 53°59' E 008°27'612.4
2018-Jul-16 14:00N 53°57' E 008°37'510.8
2018-Jul-16 13:30N 53°53' E 008°43'5 9.5
2018-Jul-16 13:00N 53°50' E 008°49'510.3
2018-Jul-16 12:30N 53°51' E 008°58'510.7
2018-Jul-16 12:01N 53°53' E 009°07'4 7.8
2018-Jul-16 11:30N 53°53' E 009°13'612.8
2018-Jul-16 11:01N 53°49' E 009°22'612.9
2018-Jul-16 10:31N 53°44' E 009°28'612.5
2018-Jul-16 10:01N 53°38' E 009°32'612.3
2018-Jul-16 09:30N 53°34' E 009°40'612.3
2018-Jul-16 09:00N 53°33' E 009°51'3 6.9
2018-Jul-16 08:30N 53°32' E 009°56'2 3.3
2018-Jul-16 08:00N 53°31' E 009°57'0 0.0
2018-Jul-16 07:30N 53°31' E 009°57'0 0.0
2018-Jul-16 07:00N 53°31' E 009°57'0 0.0
2018-Jul-16 06:30N 53°31' E 009°57'0 0.0
2018-Jul-16 06:00N 53°31' E 009°57'0 0.0
2018-Jul-16 05:30N 53°31' E 009°57'0 0.0
2018-Jul-16 05:00N 53°31' E 009°57'0 0.0
2018-Jul-16 04:30N 53°31' E 009°57'0 0.0
2018-Jul-16 04:00N 53°31' E 009°57'0 0.0
2018-Jul-16 03:30N 53°31' E 009°57'0 0.0
2018-Jul-16 03:00N 53°31' E 009°57'0 0.0
2018-Jul-16 02:30N 53°31' E 009°57'0 0.0
2018-Jul-16 01:57N 53°31' E 009°57'0 0.0
2018-Jul-16 01:30N 53°31' E 009°57'0 0.0
2018-Jul-16 01:00N 53°31' E 009°57'0 0.0
2018-Jul-16 00:30N 53°31' E 009°57'0 0.0
2018-Jul-15 23:57N 53°31' E 009°57'0 0.0
2018-Jul-15 23:30N 53°31' E 009°57'0 0.0
2018-Jul-15 23:00N 53°31' E 009°57'0 0.0
2018-Jul-15 22:30N 53°31' E 009°57'0 0.0
2018-Jul-15 22:00N 53°31' E 009°57'0 0.0
2018-Jul-15 21:30N 53°31' E 009°57'0 0.0
2018-Jul-15 21:00N 53°31' E 009°57'0 0.0
2018-Jul-15 20:30N 53°31' E 009°57'0 0.0
2018-Jul-15 20:00N 53°31' E 009°57'0 0.0
2018-Jul-15 19:30N 53°31' E 009°57'0 0.0
2018-Jul-15 19:00N 53°31' E 009°57'0 0.0
2018-Jul-15 18:30N 53°31' E 009°57'0 0.0
2018-Jul-15 18:00N 53°31' E 009°57'0 0.0
2018-Jul-15 17:30N 53°31' E 009°57'0 0.0
2018-Jul-15 17:00N 53°31' E 009°57'0 0.0
2018-Jul-15 16:30N 53°31' E 009°57'0 0.0
2018-Jul-15 16:00N 53°31' E 009°57'0 0.0
2018-Jul-15 15:30N 53°31' E 009°57'0 0.0
2018-Jul-15 15:00N 53°31' E 009°57'0 0.0
2018-Jul-15 14:30N 53°31' E 009°57'0 0.0
2018-Jul-15 14:00N 53°31' E 009°57'0 0.0
2018-Jul-15 13:27N 53°31' E 009°57'0 0.0
2018-Jul-15 13:00N 53°31' E 009°57'0 0.0
2018-Jul-15 12:30N 53°31' E 009°57'0 0.0
2018-Jul-15 11:54N 53°31' E 009°57'0 0.0
2018-Jul-15 11:30N 53°31' E 009°57'0 0.0
2018-Jul-15 11:00N 53°31' E 009°57'0 0.0
2018-Jul-15 10:30N 53°31' E 009°57'0 0.0
2018-Jul-15 10:00N 53°31' E 009°57'0 0.0
2018-Jul-15 09:27N 53°31' E 009°57'0 0.0
2018-Jul-15 09:00N 53°31' E 009°57'0 0.0
2018-Jul-15 08:30N 53°31' E 009°57'0 0.0
2018-Jul-15 08:00N 53°31' E 009°57'0 0.0
2018-Jul-15 07:30N 53°31' E 009°57'0 0.0
2018-Jul-15 07:00N 53°31' E 009°57'0 0.0
2018-Jul-15 06:30N 53°31' E 009°57'0 0.0
2018-Jul-15 06:00N 53°31' E 009°57'0 0.0
2018-Jul-15 05:30N 53°31' E 009°57'0 0.0
2018-Jul-15 05:00N 53°31' E 009°57'0 0.0
2018-Jul-15 04:30N 53°31' E 009°57'0 0.0
2018-Jul-15 04:00N 53°31' E 009°57'0 0.0
2018-Jul-15 03:30N 53°31' E 009°57'0 0.0
2018-Jul-15 02:57N 53°31' E 009°57'0 0.0
2018-Jul-15 02:30N 53°31' E 009°57'0 0.0
2018-Jul-15 01:57N 53°31' E 009°57'0 0.0
2018-Jul-15 01:30N 53°31' E 009°57'1 1.2
2018-Jul-15 01:00N 53°31' E 009°57'3 5.5
2018-Jul-15 00:30N 53°33' E 009°53'510.0
2018-Jul-15 00:00N 53°34' E 009°45'612.4
2018-Jul-14 23:30N 53°36' E 009°35'612.7
2018-Jul-14 23:00N 53°42' E 009°30'612.3
2018-Jul-14 22:30N 53°47' E 009°23'612.3
2018-Jul-14 22:00N 53°52' E 009°18'611.7
2018-Jul-14 21:30N 53°53' E 009°08'4 7.7
2018-Jul-14 21:01N 53°51' E 009°02'611.3
2018-Jul-14 20:30N 53°50' E 008°52'510.9
2018-Jul-14 20:00N 53°52' E 008°44'611.4
2018-Jul-14 19:30N 53°57' E 008°38'611.7
2018-Jul-14 19:00N 53°58' E 008°29'612.0
2018-Jul-14 18:30N 53°59' E 008°19'713.9
2018-Jul-14 18:00N 53°59' E 008°07'612.5
2018-Jul-14 17:30N 54°02' E 007°57'612.9
2018-Jul-14 17:00N 54°05' E 007°48'812.5
2018-Jul-14 16:23N 54°09' E 007°36'3712.8
2018-Jul-14 13:29N 54°09' E 006°33'11713.4
2018-Jul-14 04:47N 53°17' E 003°36'715.2
2018-Jul-14 04:20N 53°11' E 003°31'615.2
2018-Jul-14 03:58N 53°06' E 003°28'715.4
2018-Jul-14 03:30N 52°59' E 003°23'815.4
2018-Jul-14 03:00N 52°52' E 003°18'815.4
2018-Jul-14 02:31N 52°46' E 003°12'815.5
2018-Jul-14 01:59N 52°38' E 003°06'815.1
2018-Jul-14 01:29N 52°32' E 002°60'714.8
2018-Jul-14 01:00N 52°25' E 002°54'714.3
2018-Jul-14 00:31N 52°19' E 002°49'713.8
2018-Jul-14 00:00N 52°13' E 002°44'713.2
2018-Jul-13 23:30N 52°07' E 002°40'612.8
2018-Jul-13 23:00N 52°00' E 002°40'612.4
2018-Jul-13 22:30N 51°54' E 002°42'612.0
2018-Jul-13 22:00N 51°49' E 002°38'611.9
2018-Jul-13 21:30N 51°44' E 002°32'611.7
2018-Jul-13 21:00N 51°40' E 002°26'611.5
2018-Jul-13 20:30N 51°35' E 002°21'611.3
2018-Jul-13 20:00N 51°30' E 002°15'611.3
2018-Jul-13 19:30N 51°25' E 002°12'510.5
2018-Jul-13 19:00N 51°21' E 002°16'815.6
2018-Jul-13 18:30N 51°23' E 002°28'5 9.5
2018-Jul-13 17:58N 51°24' E 002°36'0 0.1
2018-Jul-13 17:30N 51°24' E 002°36'5 9.8
2018-Jul-13 17:00N 51°22' E 002°43'613.0
2018-Jul-13 16:30N 51°22' E 002°53'713.6
2018-Jul-13 16:00N 51°25' E 003°04'713.8
2018-Jul-13 15:31N 51°25' E 003°15'713.9
2018-Jul-13 15:00N 51°25' E 003°26'612.8
2018-Jul-13 14:30N 51°26' E 003°36'10 9.8
2018-Jul-13 13:30N 51°21' E 003°49'1 1.9
2018-Jul-13 13:00N 51°20' E 003°49'1 1.2
2018-Jul-13 12:30N 51°19' E 003°49'3 6.2
2018-Jul-13 12:01N 51°16' E 003°50'3 6.1
2018-Jul-13 11:31N 51°13' E 003°48'3 5.3
2018-Jul-13 11:01N 51°11' E 003°48'3 6.4
2018-Jul-13 10:31N 51°08' E 003°46'2 4.6
2018-Jul-13 10:00N 51°06' E 003°44'1 1.8
2018-Jul-13 09:30N 51°05' E 003°44'0 0.0
2018-Jul-13 09:00N 51°05' E 003°44'0 0.0
2018-Jul-13 08:30N 51°05' E 003°44'0 0.0
2018-Jul-13 08:00N 51°05' E 003°44'0 0.0
2018-Jul-13 07:30N 51°05' E 003°44'0 0.0
2018-Jul-13 06:58N 51°05' E 003°44'0 0.0
2018-Jul-13 06:31N 51°05' E 003°44'0 0.0
2018-Jul-13 05:58N 51°05' E 003°44'0 0.0
2018-Jul-13 05:31N 51°05' E 003°44'0 0.0
2018-Jul-13 05:01N 51°05' E 003°44'0 0.0
2018-Jul-13 04:27N 51°05' E 003°44'0 0.0
2018-Jul-13 04:01N 51°05' E 003°44'0 0.0
2018-Jul-13 03:30N 51°05' E 003°44'0 0.0
2018-Jul-13 02:57N 51°05' E 003°44'0 0.0
2018-Jul-13 02:30N 51°05' E 003°44'0 0.0
2018-Jul-13 02:00N 51°05' E 003°44'0 0.0
2018-Jul-13 01:30N 51°05' E 003°44'0 0.0
2018-Jul-13 00:57N 51°05' E 003°44'0 0.0
2018-Jul-13 00:30N 51°05' E 003°44'0 0.0
2018-Jul-13 00:00N 51°05' E 003°44'0 0.0
2018-Jul-12 23:31N 51°05' E 003°44'0 0.0
2018-Jul-12 22:57N 51°05' E 003°44'0 0.0
2018-Jul-12 22:30N 51°05' E 003°44'0 0.0
2018-Jul-12 21:57N 51°05' E 003°44'0 0.0
2018-Jul-12 21:27N 51°05' E 003°44'0 0.0
2018-Jul-12 21:01N 51°05' E 003°44'0 0.0
2018-Jul-12 20:30N 51°05' E 003°44'0 0.0
2018-Jul-12 20:01N 51°05' E 003°44'0 0.0
2018-Jul-12 19:30N 51°05' E 003°44'0 0.0
2018-Jul-12 19:00N 51°05' E 003°44'0 0.0
2018-Jul-12 18:30N 51°05' E 003°44'0 0.0
2018-Jul-12 17:57N 51°05' E 003°44'0 0.0
2018-Jul-12 17:27N 51°05' E 003°44'0 0.0
2018-Jul-12 17:00N 51°05' E 003°44'0 0.0
2018-Jul-12 16:30N 51°05' E 003°44'0 0.0
2018-Jul-12 15:59N 51°05' E 003°44'0 0.0
2018-Jul-12 15:29N 51°05' E 003°44'0 0.0
2018-Jul-12 14:59N 51°05' E 003°44'0 0.0
2018-Jul-12 14:29N 51°05' E 003°44'0 0.0
2018-Jul-12 13:56N 51°05' E 003°44'0 0.0
2018-Jul-12 13:29N 51°05' E 003°44'0 0.0
2018-Jul-12 13:00N 51°05' E 003°44'0 0.0
2018-Jul-12 12:29N 51°05' E 003°44'0 0.0
2018-Jul-12 11:56N 51°05' E 003°44'0 0.0
2018-Jul-12 11:30N 51°05' E 003°44'0 0.0
2018-Jul-12 10:58N 51°05' E 003°44'0 0.0
2018-Jul-12 10:30N 51°05' E 003°44'0 0.0
2018-Jul-12 10:00N 51°05' E 003°44'0 0.0
2018-Jul-12 09:29N 51°05' E 003°44'0 0.0
2018-Jul-12 09:00N 51°05' E 003°44'0 0.0
2018-Jul-12 08:30N 51°05' E 003°44'0 0.0
2018-Jul-12 08:00N 51°05' E 003°44'0 0.0
2018-Jul-12 07:30N 51°05' E 003°44'0 0.0
2018-Jul-12 07:01N 51°05' E 003°44'0 0.0
2018-Jul-12 06:28N 51°05' E 003°44'0 0.0
2018-Jul-12 05:57N 51°05' E 003°44'0 0.0
2018-Jul-12 05:28N 51°05' E 003°44'0 0.0
2018-Jul-12 04:58N 51°05' E 003°44'0 0.0
2018-Jul-12 04:28N 51°05' E 003°44'0 0.0
2018-Jul-12 03:55N 51°05' E 003°44'0 0.0
2018-Jul-12 03:30N 51°05' E 003°44'0 0.0
2018-Jul-12 03:00N 51°05' E 003°44'0 0.0
2018-Jul-12 02:31N 51°05' E 003°44'0 0.0
2018-Jul-12 01:59N 51°05' E 003°44'0 0.0
2018-Jul-12 01:28N 51°05' E 003°44'0 0.0
2018-Jul-12 00:58N 51°05' E 003°44'  

Dump ship's entire track history